sensor_id;sensor_type;location;lat;lon;timestamp;P1;durP1;ratioP1;P2;durP2;ratioP2
79027;SDS011;68427;48.476;19.102;2023-07-28T00:01:58;3.40;;;1.17;;
79027;SDS011;68427;48.476;19.102;2023-07-28T00:04:23;2.17;;;1.60;;
79027;SDS011;68427;48.476;19.102;2023-07-28T00:06:49;2.80;;;1.23;;
79027;SDS011;68427;48.476;19.102;2023-07-28T00:09:15;1.92;;;1.40;;
79027;SDS011;68427;48.476;19.102;2023-07-28T00:11:42;3.47;;;1.80;;
79027;SDS011;68427;48.476;19.102;2023-07-28T00:14:07;2.60;;;0.90;;
79027;SDS011;68427;48.476;19.102;2023-07-28T00:16:33;2.83;;;1.55;;
79027;SDS011;68427;48.476;19.102;2023-07-28T00:18:59;2.42;;;1.40;;
79027;SDS011;68427;48.476;19.102;2023-07-28T00:21:25;2.00;;;0.80;;
79027;SDS011;68427;48.476;19.102;2023-07-28T00:23:51;3.38;;;1.25;;
79027;SDS011;68427;48.476;19.102;2023-07-28T00:26:17;2.30;;;1.15;;
79027;SDS011;68427;48.476;19.102;2023-07-28T00:28:44;2.53;;;1.60;;
79027;SDS011;68427;48.476;19.102;2023-07-28T00:31:09;2.33;;;0.85;;
79027;SDS011;68427;48.476;19.102;2023-07-28T00:33:36;3.53;;;1.30;;
79027;SDS011;68427;48.476;19.102;2023-07-28T00:38:28;2.13;;;1.25;;
79027;SDS011;68427;48.476;19.102;2023-07-28T00:40:54;3.40;;;0.98;;
79027;SDS011;68427;48.476;19.102;2023-07-28T00:43:19;3.08;;;2.22;;
79027;SDS011;68427;48.476;19.102;2023-07-28T00:45:46;2.05;;;1.17;;
79027;SDS011;68427;48.476;19.102;2023-07-28T00:48:13;2.33;;;1.10;;
79027;SDS011;68427;48.476;19.102;2023-07-28T00:50:42;2.35;;;1.02;;
79027;SDS011;68427;48.476;19.102;2023-07-28T00:53:10;2.13;;;1.17;;
79027;SDS011;68427;48.476;19.102;2023-07-28T00:55:36;3.75;;;1.50;;
79027;SDS011;68427;48.476;19.102;2023-07-28T00:58:02;2.17;;;1.25;;
79027;SDS011;68427;48.476;19.102;2023-07-28T01:00:28;2.00;;;1.17;;
79027;SDS011;68427;48.476;19.102;2023-07-28T01:02:55;2.67;;;1.00;;
79027;SDS011;68427;48.476;19.102;2023-07-28T01:05:22;2.40;;;1.52;;
79027;SDS011;68427;48.476;19.102;2023-07-28T01:07:58;2.65;;;1.15;;
79027;SDS011;68427;48.476;19.102;2023-07-28T01:10:29;2.80;;;1.50;;
79027;SDS011;68427;48.476;19.102;2023-07-28T01:12:57;2.55;;;1.10;;
79027;SDS011;68427;48.476;19.102;2023-07-28T01:15:23;2.53;;;1.10;;
79027;SDS011;68427;48.476;19.102;2023-07-28T01:17:48;3.42;;;1.13;;
79027;SDS011;68427;48.476;19.102;2023-07-28T01:20:16;2.47;;;0.95;;
79027;SDS011;68427;48.476;19.102;2023-07-28T01:22:47;3.20;;;2.35;;
79027;SDS011;68427;48.476;19.102;2023-07-28T01:25:22;2.58;;;1.73;;
79027;SDS011;68427;48.476;19.102;2023-07-28T01:27:55;3.33;;;1.67;;
79027;SDS011;68427;48.476;19.102;2023-07-28T01:30:23;2.65;;;1.73;;
79027;SDS011;68427;48.476;19.102;2023-07-28T01:32:53;3.97;;;1.90;;
79027;SDS011;68427;48.476;19.102;2023-07-28T01:35:19;2.30;;;1.27;;
79027;SDS011;68427;48.476;19.102;2023-07-28T01:37:45;2.17;;;1.80;;
79027;SDS011;68427;48.476;19.102;2023-07-28T01:40:15;2.55;;;1.85;;
79027;SDS011;68427;48.476;19.102;2023-07-28T01:42:41;1.85;;;1.17;;
79027;SDS011;68427;48.476;19.102;2023-07-28T01:45:09;2.47;;;1.42;;
79027;SDS011;68427;48.476;19.102;2023-07-28T01:47:34;2.05;;;1.42;;
79027;SDS011;68427;48.476;19.102;2023-07-28T01:50:00;2.53;;;2.08;;
79027;SDS011;68427;48.476;19.102;2023-07-28T01:52:26;3.65;;;1.10;;
79027;SDS011;68427;48.476;19.102;2023-07-28T01:54:51;2.40;;;0.77;;
79027;SDS011;68427;48.476;19.102;2023-07-28T01:57:17;3.33;;;1.95;;
79027;SDS011;68427;48.476;19.102;2023-07-28T01:59:43;1.45;;;0.73;;
79027;SDS011;68427;48.476;19.102;2023-07-28T02:02:10;4.75;;;1.10;;
79027;SDS011;68427;48.476;19.102;2023-07-28T02:04:36;2.10;;;1.55;;
79027;SDS011;68427;48.476;19.102;2023-07-28T02:07:01;2.67;;;1.42;;
79027;SDS011;68427;48.476;19.102;2023-07-28T02:09:27;2.88;;;1.27;;
79027;SDS011;68427;48.476;19.102;2023-07-28T02:11:53;2.60;;;1.35;;
79027;SDS011;68427;48.476;19.102;2023-07-28T02:14:19;2.35;;;1.67;;
79027;SDS011;68427;48.476;19.102;2023-07-28T02:16:44;2.10;;;1.08;;
79027;SDS011;68427;48.476;19.102;2023-07-28T02:19:11;4.10;;;1.52;;
79027;SDS011;68427;48.476;19.102;2023-07-28T02:21:37;2.17;;;1.52;;
79027;SDS011;68427;48.476;19.102;2023-07-28T02:24:03;2.55;;;1.10;;
79027;SDS011;68427;48.476;19.102;2023-07-28T02:26:29;2.15;;;1.05;;
79027;SDS011;68427;48.476;19.102;2023-07-28T02:28:55;3.65;;;1.58;;
79027;SDS011;68427;48.476;19.102;2023-07-28T02:31:20;1.83;;;1.45;;
79027;SDS011;68427;48.476;19.102;2023-07-28T02:33:46;2.20;;;1.58;;
79027;SDS011;68427;48.476;19.102;2023-07-28T02:36:13;2.70;;;1.52;;
79027;SDS011;68427;48.476;19.102;2023-07-28T02:38:39;2.90;;;2.05;;
79027;SDS011;68427;48.476;19.102;2023-07-28T02:41:04;2.65;;;1.50;;
79027;SDS011;68427;48.476;19.102;2023-07-28T02:43:30;3.85;;;3.55;;
79027;SDS011;68427;48.476;19.102;2023-07-28T02:45:56;3.13;;;1.27;;
79027;SDS011;68427;48.476;19.102;2023-07-28T02:48:23;2.40;;;1.60;;
79027;SDS011;68427;48.476;19.102;2023-07-28T02:50:50;3.72;;;1.30;;
79027;SDS011;68427;48.476;19.102;2023-07-28T02:53:17;2.75;;;1.90;;
79027;SDS011;68427;48.476;19.102;2023-07-28T02:55:44;2.97;;;1.92;;
79027;SDS011;68427;48.476;19.102;2023-07-28T02:58:10;4.28;;;2.20;;
79027;SDS011;68427;48.476;19.102;2023-07-28T03:00:36;3.00;;;1.95;;
79027;SDS011;68427;48.476;19.102;2023-07-28T03:03:02;2.35;;;1.73;;
79027;SDS011;68427;48.476;19.102;2023-07-28T03:05:28;4.13;;;2.03;;
79027;SDS011;68427;48.476;19.102;2023-07-28T03:07:53;2.72;;;1.77;;
79027;SDS011;68427;48.476;19.102;2023-07-28T03:10:20;2.83;;;1.30;;
79027;SDS011;68427;48.476;19.102;2023-07-28T03:12:46;3.15;;;1.75;;
79027;SDS011;68427;48.476;19.102;2023-07-28T03:15:12;3.10;;;1.45;;
79027;SDS011;68427;48.476;19.102;2023-07-28T03:17:37;1.95;;;1.00;;
79027;SDS011;68427;48.476;19.102;2023-07-28T03:20:03;4.03;;;3.67;;
79027;SDS011;68427;48.476;19.102;2023-07-28T03:22:29;1.73;;;1.15;;
79027;SDS011;68427;48.476;19.102;2023-07-28T03:24:55;2.80;;;1.23;;
79027;SDS011;68427;48.476;19.102;2023-07-28T03:27:22;1.50;;;0.82;;
79027;SDS011;68427;48.476;19.102;2023-07-28T03:29:49;4.25;;;1.05;;
79027;SDS011;68427;48.476;19.102;2023-07-28T03:32:15;4.80;;;1.27;;
79027;SDS011;68427;48.476;19.102;2023-07-28T03:34:41;2.17;;;0.90;;
79027;SDS011;68427;48.476;19.102;2023-07-28T03:37:06;1.63;;;0.95;;
79027;SDS011;68427;48.476;19.102;2023-07-28T03:39:32;3.58;;;1.30;;
79027;SDS011;68427;48.476;19.102;2023-07-28T03:41:58;2.55;;;1.23;;
79027;SDS011;68427;48.476;19.102;2023-07-28T03:44:25;3.42;;;1.17;;
79027;SDS011;68427;48.476;19.102;2023-07-28T03:49:16;2.50;;;1.17;;
79027;SDS011;68427;48.476;19.102;2023-07-28T03:51:42;1.70;;;1.08;;
79027;SDS011;68427;48.476;19.102;2023-07-28T03:54:08;1.20;;;0.68;;
79027;SDS011;68427;48.476;19.102;2023-07-28T03:56:34;1.88;;;0.60;;
79027;SDS011;68427;48.476;19.102;2023-07-28T03:58:59;2.17;;;1.08;;
79027;SDS011;68427;48.476;19.102;2023-07-28T04:01:26;3.17;;;1.45;;
79027;SDS011;68427;48.476;19.102;2023-07-28T04:03:52;2.53;;;0.82;;
79027;SDS011;68427;48.476;19.102;2023-07-28T04:06:18;2.00;;;1.77;;
79027;SDS011;68427;48.476;19.102;2023-07-28T04:08:43;3.00;;;0.80;;
79027;SDS011;68427;48.476;19.102;2023-07-28T04:11:10;2.33;;;1.33;;
79027;SDS011;68427;48.476;19.102;2023-07-28T04:13:35;2.13;;;0.82;;
79027;SDS011;68427;48.476;19.102;2023-07-28T04:16:01;1.17;;;0.75;;
79027;SDS011;68427;48.476;19.102;2023-07-28T04:18:28;2.67;;;1.70;;
79027;SDS011;68427;48.476;19.102;2023-07-28T04:20:56;2.85;;;1.48;;
79027;SDS011;68427;48.476;19.102;2023-07-28T04:23:22;2.72;;;1.65;;
79027;SDS011;68427;48.476;19.102;2023-07-28T04:25:48;4.65;;;1.77;;
79027;SDS011;68427;48.476;19.102;2023-07-28T04:28:13;3.50;;;2.33;;
79027;SDS011;68427;48.476;19.102;2023-07-28T04:30:39;3.90;;;2.55;;
79027;SDS011;68427;48.476;19.102;2023-07-28T04:33:05;3.47;;;1.75;;
79027;SDS011;68427;48.476;19.102;2023-07-28T04:35:32;5.53;;;2.70;;
79027;SDS011;68427;48.476;19.102;2023-07-28T04:37:57;3.70;;;2.28;;
79027;SDS011;68427;48.476;19.102;2023-07-28T04:40:23;4.82;;;2.00;;
79027;SDS011;68427;48.476;19.102;2023-07-28T04:42:49;2.83;;;1.52;;
79027;SDS011;68427;48.476;19.102;2023-07-28T04:45:18;2.92;;;2.08;;
79027;SDS011;68427;48.476;19.102;2023-07-28T04:47:43;3.65;;;2.00;;
79027;SDS011;68427;48.476;19.102;2023-07-28T04:50:09;3.08;;;1.80;;
79027;SDS011;68427;48.476;19.102;2023-07-28T04:52:36;2.90;;;2.10;;
79027;SDS011;68427;48.476;19.102;2023-07-28T04:55:02;2.50;;;1.55;;
79027;SDS011;68427;48.476;19.102;2023-07-28T04:57:28;3.38;;;1.83;;
79027;SDS011;68427;48.476;19.102;2023-07-28T04:59:53;3.45;;;1.77;;
79027;SDS011;68427;48.476;19.102;2023-07-28T05:02:19;2.97;;;1.85;;
79027;SDS011;68427;48.476;19.102;2023-07-28T05:04:45;3.83;;;2.42;;
79027;SDS011;68427;48.476;19.102;2023-07-28T05:07:10;2.67;;;2.20;;
79027;SDS011;68427;48.476;19.102;2023-07-28T05:09:37;3.97;;;1.75;;
79027;SDS011;68427;48.476;19.102;2023-07-28T05:12:03;3.83;;;2.15;;
79027;SDS011;68427;48.476;19.102;2023-07-28T05:14:30;3.97;;;2.42;;
79027;SDS011;68427;48.476;19.102;2023-07-28T05:16:55;3.13;;;2.10;;
79027;SDS011;68427;48.476;19.102;2023-07-28T05:19:21;5.25;;;2.15;;
79027;SDS011;68427;48.476;19.102;2023-07-28T05:21:47;3.72;;;2.00;;
79027;SDS011;68427;48.476;19.102;2023-07-28T05:24:13;4.72;;;2.10;;
79027;SDS011;68427;48.476;19.102;2023-07-28T05:26:40;4.05;;;2.53;;
79027;SDS011;68427;48.476;19.102;2023-07-28T05:29:05;4.13;;;2.03;;
79027;SDS011;68427;48.476;19.102;2023-07-28T05:31:31;4.85;;;2.03;;
79027;SDS011;68427;48.476;19.102;2023-07-28T05:33:57;3.22;;;1.60;;
79027;SDS011;68427;48.476;19.102;2023-07-28T05:36:22;4.90;;;2.65;;
79027;SDS011;68427;48.476;19.102;2023-07-28T05:38:48;3.60;;;2.08;;
79027;SDS011;68427;48.476;19.102;2023-07-28T05:41:14;3.95;;;1.88;;
79027;SDS011;68427;48.476;19.102;2023-07-28T05:43:41;3.58;;;1.67;;
79027;SDS011;68427;48.476;19.102;2023-07-28T05:46:07;3.17;;;2.28;;
79027;SDS011;68427;48.476;19.102;2023-07-28T05:48:33;4.22;;;1.58;;
79027;SDS011;68427;48.476;19.102;2023-07-28T05:50:58;4.22;;;2.33;;
79027;SDS011;68427;48.476;19.102;2023-07-28T05:53:24;3.88;;;2.17;;
79027;SDS011;68427;48.476;19.102;2023-07-28T05:55:50;4.65;;;2.88;;
79027;SDS011;68427;48.476;19.102;2023-07-28T05:58:15;3.40;;;2.15;;
79027;SDS011;68427;48.476;19.102;2023-07-28T06:00:43;3.08;;;1.80;;
79027;SDS011;68427;48.476;19.102;2023-07-28T06:03:09;3.30;;;1.63;;
79027;SDS011;68427;48.476;19.102;2023-07-28T06:05:35;4.25;;;1.92;;
79027;SDS011;68427;48.476;19.102;2023-07-28T06:08:01;3.00;;;1.75;;
79027;SDS011;68427;48.476;19.102;2023-07-28T06:10:27;3.22;;;1.83;;
79027;SDS011;68427;48.476;19.102;2023-07-28T06:12:53;3.25;;;1.67;;
79027;SDS011;68427;48.476;19.102;2023-07-28T06:15:19;2.75;;;1.35;;
79027;SDS011;68427;48.476;19.102;2023-07-28T06:17:46;2.20;;;1.20;;
79027;SDS011;68427;48.476;19.102;2023-07-28T06:20:11;2.58;;;1.33;;
79027;SDS011;68427;48.476;19.102;2023-07-28T06:22:37;4.47;;;2.13;;
79027;SDS011;68427;48.476;19.102;2023-07-28T06:25:03;2.70;;;1.95;;
79027;SDS011;68427;48.476;19.102;2023-07-28T06:27:29;2.60;;;1.15;;
79027;SDS011;68427;48.476;19.102;2023-07-28T06:29:54;3.50;;;1.30;;
79027;SDS011;68427;48.476;19.102;2023-07-28T06:32:20;3.30;;;2.35;;
79027;SDS011;68427;48.476;19.102;2023-07-28T06:34:50;3.03;;;2.08;;
79027;SDS011;68427;48.476;19.102;2023-07-28T06:37:16;3.95;;;1.92;;
79027;SDS011;68427;48.476;19.102;2023-07-28T06:39:42;4.13;;;1.98;;
79027;SDS011;68427;48.476;19.102;2023-07-28T06:42:08;4.40;;;2.15;;
79027;SDS011;68427;48.476;19.102;2023-07-28T06:44:33;7.60;;;3.97;;
79027;SDS011;68427;48.476;19.102;2023-07-28T06:46:59;4.55;;;3.10;;
79027;SDS011;68427;48.476;19.102;2023-07-28T06:49:25;4.75;;;2.70;;
79027;SDS011;68427;48.476;19.102;2023-07-28T06:51:52;3.53;;;2.78;;
79027;SDS011;68427;48.476;19.102;2023-07-28T06:54:18;4.15;;;2.55;;
79027;SDS011;68427;48.476;19.102;2023-07-28T06:56:43;5.18;;;2.70;;
79027;SDS011;68427;48.476;19.102;2023-07-28T06:59:09;3.60;;;1.83;;
79027;SDS011;68427;48.476;19.102;2023-07-28T07:01:35;3.85;;;2.28;;
79027;SDS011;68427;48.476;19.102;2023-07-28T07:04:01;3.50;;;2.13;;
79027;SDS011;68427;48.476;19.102;2023-07-28T07:06:26;3.47;;;2.58;;
79027;SDS011;68427;48.476;19.102;2023-07-28T07:08:54;2.38;;;1.42;;
79027;SDS011;68427;48.476;19.102;2023-07-28T07:11:20;3.03;;;2.70;;
79027;SDS011;68427;48.476;19.102;2023-07-28T07:13:46;2.90;;;2.03;;
79027;SDS011;68427;48.476;19.102;2023-07-28T07:16:13;2.58;;;1.98;;
79027;SDS011;68427;48.476;19.102;2023-07-28T07:18:39;3.17;;;2.15;;
79027;SDS011;68427;48.476;19.102;2023-07-28T07:21:05;3.65;;;1.88;;
79027;SDS011;68427;48.476;19.102;2023-07-28T07:23:31;3.22;;;2.13;;
79027;SDS011;68427;48.476;19.102;2023-07-28T07:25:58;2.33;;;1.80;;
79027;SDS011;68427;48.476;19.102;2023-07-28T07:28:24;5.10;;;1.77;;
79027;SDS011;68427;48.476;19.102;2023-07-28T07:30:49;3.75;;;1.75;;
79027;SDS011;68427;48.476;19.102;2023-07-28T07:33:15;5.35;;;2.67;;
79027;SDS011;68427;48.476;19.102;2023-07-28T07:35:40;3.40;;;2.75;;
79027;SDS011;68427;48.476;19.102;2023-07-28T07:38:06;3.10;;;1.98;;
79027;SDS011;68427;48.476;19.102;2023-07-28T07:40:34;3.40;;;2.00;;
79027;SDS011;68427;48.476;19.102;2023-07-28T07:43:01;4.50;;;2.20;;
79027;SDS011;68427;48.476;19.102;2023-07-28T07:45:28;3.28;;;2.10;;
79027;SDS011;68427;48.476;19.102;2023-07-28T07:47:54;2.40;;;1.23;;
79027;SDS011;68427;48.476;19.102;2023-07-28T07:50:20;3.58;;;1.90;;
79027;SDS011;68427;48.476;19.102;2023-07-28T07:52:46;2.67;;;2.00;;
79027;SDS011;68427;48.476;19.102;2023-07-28T07:55:12;2.67;;;2.47;;
79027;SDS011;68427;48.476;19.102;2023-07-28T07:57:39;3.53;;;1.48;;
79027;SDS011;68427;48.476;19.102;2023-07-28T08:00:07;2.33;;;1.23;;
79027;SDS011;68427;48.476;19.102;2023-07-28T08:02:33;2.38;;;1.10;;
79027;SDS011;68427;48.476;19.102;2023-07-28T08:04:59;1.83;;;1.63;;
79027;SDS011;68427;48.476;19.102;2023-07-28T08:07:25;2.75;;;0.82;;
79027;SDS011;68427;48.476;19.102;2023-07-28T08:09:51;1.45;;;1.00;;
79027;SDS011;68427;48.476;19.102;2023-07-28T08:12:17;1.58;;;1.48;;
79027;SDS011;68427;48.476;19.102;2023-07-28T08:14:43;2.30;;;0.93;;
79027;SDS011;68427;48.476;19.102;2023-07-28T08:17:10;2.40;;;0.60;;
79027;SDS011;68427;48.476;19.102;2023-07-28T08:19:36;1.80;;;0.88;;
79027;SDS011;68427;48.476;19.102;2023-07-28T08:22:01;1.63;;;0.95;;
79027;SDS011;68427;48.476;19.102;2023-07-28T08:24:30;2.20;;;1.02;;
79027;SDS011;68427;48.476;19.102;2023-07-28T08:26:56;2.30;;;1.05;;
79027;SDS011;68427;48.476;19.102;2023-07-28T08:29:22;1.55;;;0.50;;
79027;SDS011;68427;48.476;19.102;2023-07-28T08:31:47;1.52;;;0.52;;
79027;SDS011;68427;48.476;19.102;2023-07-28T08:34:15;1.88;;;0.77;;
79027;SDS011;68427;48.476;19.102;2023-07-28T08:36:42;1.67;;;0.85;;
79027;SDS011;68427;48.476;19.102;2023-07-28T08:39:08;1.70;;;1.05;;
79027;SDS011;68427;48.476;19.102;2023-07-28T08:41:34;1.88;;;0.90;;
79027;SDS011;68427;48.476;19.102;2023-07-28T08:44:00;1.63;;;0.80;;
79027;SDS011;68427;48.476;19.102;2023-07-28T08:46:26;1.77;;;0.85;;
79027;SDS011;68427;48.476;19.102;2023-07-28T08:48:52;1.90;;;0.70;;
79027;SDS011;68427;48.476;19.102;2023-07-28T08:51:21;2.33;;;1.10;;
79027;SDS011;68427;48.476;19.102;2023-07-28T08:53:47;2.25;;;0.77;;
79027;SDS011;68427;48.476;19.102;2023-07-28T08:56:13;2.53;;;2.30;;
79027;SDS011;68427;48.476;19.102;2023-07-28T08:58:39;1.83;;;1.60;;
79027;SDS011;68427;48.476;19.102;2023-07-28T09:01:05;2.10;;;0.80;;
79027;SDS011;68427;48.476;19.102;2023-07-28T09:03:31;1.83;;;0.77;;
79027;SDS011;68427;48.476;19.102;2023-07-28T09:05:59;2.40;;;0.75;;
79027;SDS011;68427;48.476;19.102;2023-07-28T09:08:27;3.10;;;0.93;;
79027;SDS011;68427;48.476;19.102;2023-07-28T09:10:55;3.10;;;1.13;;
79027;SDS011;68427;48.476;19.102;2023-07-28T09:13:21;6.10;;;0.73;;
79027;SDS011;68427;48.476;19.102;2023-07-28T09:15:47;1.30;;;0.57;;
79027;SDS011;68427;48.476;19.102;2023-07-28T09:18:14;2.33;;;0.73;;
79027;SDS011;68427;48.476;19.102;2023-07-28T09:20:41;1.77;;;0.73;;
79027;SDS011;68427;48.476;19.102;2023-07-28T09:23:09;1.75;;;1.30;;
79027;SDS011;68427;48.476;19.102;2023-07-28T09:28:03;2.22;;;1.25;;
79027;SDS011;68427;48.476;19.102;2023-07-28T09:30:42;2.92;;;0.77;;
79027;SDS011;68427;48.476;19.102;2023-07-28T09:33:10;2.22;;;0.82;;
79027;SDS011;68427;48.476;19.102;2023-07-28T09:35:35;1.17;;;0.47;;
79027;SDS011;68427;48.476;19.102;2023-07-28T09:38:13;1.33;;;0.40;;
79027;SDS011;68427;48.476;19.102;2023-07-28T09:40:40;2.35;;;0.82;;
79027;SDS011;68427;48.476;19.102;2023-07-28T09:43:07;1.40;;;0.82;;
79027;SDS011;68427;48.476;19.102;2023-07-28T09:45:32;1.40;;;0.47;;
79027;SDS011;68427;48.476;19.102;2023-07-28T09:48:01;1.38;;;0.30;;
79027;SDS011;68427;48.476;19.102;2023-07-28T09:50:30;1.50;;;0.57;;
79027;SDS011;68427;48.476;19.102;2023-07-28T09:52:58;1.92;;;0.85;;
79027;SDS011;68427;48.476;19.102;2023-07-28T09:55:27;1.98;;;0.93;;
79027;SDS011;68427;48.476;19.102;2023-07-28T09:57:55;3.33;;;0.63;;
79027;SDS011;68427;48.476;19.102;2023-07-28T10:00:23;1.55;;;1.20;;
79027;SDS011;68427;48.476;19.102;2023-07-28T10:02:49;2.75;;;0.82;;
79027;SDS011;68427;48.476;19.102;2023-07-28T10:05:16;1.75;;;0.20;;
79027;SDS011;68427;48.476;19.102;2023-07-28T10:07:42;2.33;;;1.30;;
79027;SDS011;68427;48.476;19.102;2023-07-28T10:10:09;3.13;;;0.52;;
79027;SDS011;68427;48.476;19.102;2023-07-28T10:12:40;3.97;;;0.88;;
79027;SDS011;68427;48.476;19.102;2023-07-28T10:15:11;1.85;;;0.80;;
79027;SDS011;68427;48.476;19.102;2023-07-28T10:17:41;1.30;;;0.50;;
79027;SDS011;68427;48.476;19.102;2023-07-28T10:23:03;1.88;;;0.88;;
79027;SDS011;68427;48.476;19.102;2023-07-28T10:25:31;4.28;;;0.75;;
79027;SDS011;68427;48.476;19.102;2023-07-28T10:27:59;1.95;;;0.73;;
79027;SDS011;68427;48.476;19.102;2023-07-28T10:30:26;2.92;;;0.80;;
79027;SDS011;68427;48.476;19.102;2023-07-28T10:32:52;1.70;;;0.73;;
79027;SDS011;68427;48.476;19.102;2023-07-28T10:35:23;1.77;;;0.88;;
79027;SDS011;68427;48.476;19.102;2023-07-28T10:37:51;2.53;;;0.82;;
79027;SDS011;68427;48.476;19.102;2023-07-28T10:40:21;1.55;;;0.73;;
79027;SDS011;68427;48.476;19.102;2023-07-28T10:45:13;2.38;;;0.60;;
79027;SDS011;68427;48.476;19.102;2023-07-28T10:47:41;2.03;;;0.82;;
79027;SDS011;68427;48.476;19.102;2023-07-28T10:50:09;1.75;;;0.93;;
79027;SDS011;68427;48.476;19.102;2023-07-28T10:52:38;1.55;;;0.47;;
79027;SDS011;68427;48.476;19.102;2023-07-28T10:55:04;2.15;;;0.68;;
79027;SDS011;68427;48.476;19.102;2023-07-28T10:57:30;1.90;;;0.52;;
79027;SDS011;68427;48.476;19.102;2023-07-28T10:59:59;2.90;;;0.75;;
79027;SDS011;68427;48.476;19.102;2023-07-28T11:02:25;2.40;;;0.50;;
79027;SDS011;68427;48.476;19.102;2023-07-28T11:04:53;2.03;;;0.63;;
79027;SDS011;68427;48.476;19.102;2023-07-28T11:07:19;1.95;;;0.73;;
79027;SDS011;68427;48.476;19.102;2023-07-28T11:09:45;3.13;;;0.55;;
79027;SDS011;68427;48.476;19.102;2023-07-28T11:12:11;1.98;;;1.02;;
79027;SDS011;68427;48.476;19.102;2023-07-28T11:14:37;1.55;;;0.30;;
79027;SDS011;68427;48.476;19.102;2023-07-28T11:17:04;2.15;;;1.05;;
79027;SDS011;68427;48.476;19.102;2023-07-28T11:19:31;2.92;;;0.52;;
79027;SDS011;68427;48.476;19.102;2023-07-28T11:22:00;0.98;;;0.52;;
79027;SDS011;68427;48.476;19.102;2023-07-28T11:26:51;1.67;;;0.60;;
79027;SDS011;68427;48.476;19.102;2023-07-28T11:29:18;1.60;;;0.73;;
79027;SDS011;68427;48.476;19.102;2023-07-28T11:31:44;2.47;;;0.43;;
79027;SDS011;68427;48.476;19.102;2023-07-28T11:34:12;2.65;;;0.68;;
79027;SDS011;68427;48.476;19.102;2023-07-28T11:36:39;1.83;;;1.27;;
79027;SDS011;68427;48.476;19.102;2023-07-28T11:39:07;2.92;;;0.70;;
79027;SDS011;68427;48.476;19.102;2023-07-28T11:41:35;2.25;;;1.05;;
79027;SDS011;68427;48.476;19.102;2023-07-28T11:44:02;1.75;;;0.38;;
79027;SDS011;68427;48.476;19.102;2023-07-28T11:46:34;1.88;;;0.82;;
79027;SDS011;68427;48.476;19.102;2023-07-28T11:49:07;1.33;;;0.85;;
79027;SDS011;68427;48.476;19.102;2023-07-28T11:51:36;1.80;;;0.55;;
79027;SDS011;68427;48.476;19.102;2023-07-28T11:54:04;1.35;;;0.73;;
79027;SDS011;68427;48.476;19.102;2023-07-28T11:56:32;1.70;;;0.70;;
79027;SDS011;68427;48.476;19.102;2023-07-28T11:58:59;2.08;;;0.60;;
79027;SDS011;68427;48.476;19.102;2023-07-28T12:01:24;3.10;;;0.82;;
79027;SDS011;68427;48.476;19.102;2023-07-28T12:03:50;1.98;;;0.75;;
79027;SDS011;68427;48.476;19.102;2023-07-28T12:06:16;2.17;;;0.65;;
79027;SDS011;68427;48.476;19.102;2023-07-28T12:08:41;1.63;;;0.30;;
79027;SDS011;68427;48.476;19.102;2023-07-28T12:11:11;2.03;;;0.85;;
79027;SDS011;68427;48.476;19.102;2023-07-28T12:13:48;1.33;;;0.50;;
79027;SDS011;68427;48.476;19.102;2023-07-28T12:19:09;2.45;;;0.45;;
79027;SDS011;68427;48.476;19.102;2023-07-28T12:21:34;2.13;;;0.57;;
79027;SDS011;68427;48.476;19.102;2023-07-28T12:24:00;2.05;;;0.77;;
79027;SDS011;68427;48.476;19.102;2023-07-28T12:26:25;3.00;;;0.93;;
79027;SDS011;68427;48.476;19.102;2023-07-28T12:28:53;1.25;;;0.20;;
79027;SDS011;68427;48.476;19.102;2023-07-28T12:31:18;2.00;;;0.70;;
79027;SDS011;68427;48.476;19.102;2023-07-28T12:33:44;1.38;;;0.30;;
79027;SDS011;68427;48.476;19.102;2023-07-28T12:36:10;1.85;;;0.65;;
79027;SDS011;68427;48.476;19.102;2023-07-28T12:38:35;3.22;;;0.60;;
79027;SDS011;68427;48.476;19.102;2023-07-28T12:41:01;1.55;;;0.40;;
79027;SDS011;68427;48.476;19.102;2023-07-28T12:43:27;1.88;;;0.55;;
79027;SDS011;68427;48.476;19.102;2023-07-28T12:45:55;2.13;;;1.30;;
79027;SDS011;68427;48.476;19.102;2023-07-28T12:48:21;1.90;;;0.52;;
79027;SDS011;68427;48.476;19.102;2023-07-28T12:50:47;2.58;;;0.70;;
79027;SDS011;68427;48.476;19.102;2023-07-28T12:53:12;1.38;;;0.50;;
79027;SDS011;68427;48.476;19.102;2023-07-28T12:55:38;1.45;;;0.50;;
79027;SDS011;68427;48.476;19.102;2023-07-28T12:58:04;2.20;;;0.75;;
79027;SDS011;68427;48.476;19.102;2023-07-28T13:00:29;2.88;;;0.52;;
79027;SDS011;68427;48.476;19.102;2023-07-28T13:02:56;1.90;;;0.50;;
79027;SDS011;68427;48.476;19.102;2023-07-28T13:05:22;2.10;;;0.57;;
79027;SDS011;68427;48.476;19.102;2023-07-28T13:07:48;1.60;;;0.47;;
79027;SDS011;68427;48.476;19.102;2023-07-28T13:10:13;6.15;;;0.85;;
79027;SDS011;68427;48.476;19.102;2023-07-28T13:12:39;3.95;;;1.00;;
79027;SDS011;68427;48.476;19.102;2023-07-28T13:15:05;2.60;;;0.68;;
79027;SDS011;68427;48.476;19.102;2023-07-28T13:17:32;1.55;;;0.32;;
79027;SDS011;68427;48.476;19.102;2023-07-28T13:19:59;3.75;;;0.63;;
79027;SDS011;68427;48.476;19.102;2023-07-28T13:22:25;4.65;;;0.40;;
79027;SDS011;68427;48.476;19.102;2023-07-28T13:24:51;1.70;;;0.55;;
79027;SDS011;68427;48.476;19.102;2023-07-28T13:27:17;1.17;;;0.32;;
79027;SDS011;68427;48.476;19.102;2023-07-28T13:29:43;2.90;;;1.13;;
79027;SDS011;68427;48.476;19.102;2023-07-28T13:32:18;1.88;;;0.30;;
79027;SDS011;68427;48.476;19.102;2023-07-28T13:34:48;2.08;;;0.60;;
79027;SDS011;68427;48.476;19.102;2023-07-28T13:37:15;1.98;;;0.75;;
79027;SDS011;68427;48.476;19.102;2023-07-28T13:39:41;1.55;;;0.57;;
79027;SDS011;68427;48.476;19.102;2023-07-28T13:42:07;2.63;;;0.80;;
79027;SDS011;68427;48.476;19.102;2023-07-28T13:44:33;2.45;;;0.70;;
79027;SDS011;68427;48.476;19.102;2023-07-28T13:46:59;3.17;;;0.65;;
79027;SDS011;68427;48.476;19.102;2023-07-28T13:49:25;1.92;;;0.65;;
79027;SDS011;68427;48.476;19.102;2023-07-28T13:51:51;1.92;;;0.70;;
79027;SDS011;68427;48.476;19.102;2023-07-28T13:54:18;1.98;;;0.80;;
79027;SDS011;68427;48.476;19.102;2023-07-28T13:56:44;4.35;;;0.88;;
79027;SDS011;68427;48.476;19.102;2023-07-28T13:59:09;2.35;;;1.85;;
79027;SDS011;68427;48.476;19.102;2023-07-28T14:01:35;3.67;;;1.02;;
79027;SDS011;68427;48.476;19.102;2023-07-28T14:04:01;3.83;;;1.20;;
79027;SDS011;68427;48.476;19.102;2023-07-28T14:06:26;1.90;;;1.08;;
79027;SDS011;68427;48.476;19.102;2023-07-28T14:08:52;5.22;;;1.40;;
79027;SDS011;68427;48.476;19.102;2023-07-28T14:11:19;2.95;;;1.25;;
79027;SDS011;68427;48.476;19.102;2023-07-28T14:16:10;7.25;;;1.38;;
79027;SDS011;68427;48.476;19.102;2023-07-28T14:18:36;3.85;;;1.50;;
79027;SDS011;68427;48.476;19.102;2023-07-28T14:21:02;3.35;;;1.65;;
79027;SDS011;68427;48.476;19.102;2023-07-28T14:23:28;4.13;;;1.55;;
79027;SDS011;68427;48.476;19.102;2023-07-28T14:25:54;4.03;;;1.63;;
79027;SDS011;68427;48.476;19.102;2023-07-28T14:28:22;4.47;;;1.25;;
79027;SDS011;68427;48.476;19.102;2023-07-28T14:30:48;4.20;;;1.95;;
79027;SDS011;68427;48.476;19.102;2023-07-28T14:33:14;5.45;;;1.80;;
79027;SDS011;68427;48.476;19.102;2023-07-28T14:35:41;3.25;;;1.92;;
79027;SDS011;68427;48.476;19.102;2023-07-28T14:38:06;3.17;;;1.55;;
79027;SDS011;68427;48.476;19.102;2023-07-28T14:40:32;2.67;;;1.55;;
79027;SDS011;68427;48.476;19.102;2023-07-28T14:42:58;4.40;;;1.60;;
79027;SDS011;68427;48.476;19.102;2023-07-28T14:45:25;3.20;;;1.88;;
79027;SDS011;68427;48.476;19.102;2023-07-28T14:47:51;3.78;;;1.77;;
79027;SDS011;68427;48.476;19.102;2023-07-28T14:50:17;3.00;;;1.95;;